createdAt,value
2018-05-14T00:01:06.060Z,11.93
2018-05-14T00:03:32.899Z,14.43
2018-05-14T00:06:00.461Z,12.37
2018-05-14T00:08:28.355Z,10.50
2018-05-14T00:10:55.903Z,11.87
2018-05-14T00:13:23.490Z,15.27
2018-05-14T00:15:51.063Z,11.23
2018-05-14T00:18:18.604Z,12.43
2018-05-14T00:20:46.162Z,13.07
2018-05-14T00:23:13.884Z,10.07
2018-05-14T00:25:41.431Z,9.73
2018-05-14T00:28:08.977Z,10.07
2018-05-14T00:30:36.547Z,12.60
2018-05-14T00:33:04.156Z,10.63
2018-05-14T00:35:31.697Z,9.90
2018-05-14T00:37:59.421Z,10.83
2018-05-14T00:40:26.971Z,11.17
2018-05-14T00:42:54.503Z,9.63
2018-05-14T00:45:22.075Z,9.53
2018-05-14T00:47:49.608Z,9.70
2018-05-14T00:50:16.439Z,10.23
2018-05-14T00:52:44.330Z,11.97
2018-05-14T00:55:17.750Z,12.50
2018-05-14T00:57:45.501Z,10.97
2018-05-14T01:00:13.105Z,10.07
2018-05-14T01:02:40.650Z,10.67
2018-05-14T01:05:08.228Z,9.63
2018-05-14T01:07:35.766Z,8.53
2018-05-14T01:10:03.335Z,13.13
2018-05-14T01:12:31.258Z,12.27
2018-05-14T01:14:58.812Z,9.60
2018-05-14T01:17:26.412Z,10.27
2018-05-14T01:19:54.112Z,9.90
2018-05-14T01:22:21.657Z,9.20
2018-05-14T01:24:54.682Z,9.83
2018-05-14T01:27:22.273Z,11.20
2018-05-14T01:29:49.827Z,12.87
2018-05-14T01:32:17.370Z,10.93
2018-05-14T01:34:44.909Z,9.07
2018-05-14T01:37:12.455Z,9.17
2018-05-14T01:39:40.213Z,9.83
2018-05-14T01:42:07.748Z,14.07
2018-05-14T01:44:35.299Z,14.17
2018-05-14T01:47:02.880Z,11.03
2018-05-14T01:49:30.428Z,8.97
2018-05-14T01:51:57.967Z,10.63
2018-05-14T01:54:25.555Z,8.57
2018-05-14T01:56:53.090Z,11.90
2018-05-14T01:59:20.637Z,9.50
2018-05-14T02:01:48.595Z,13.17
2018-05-14T02:04:16.135Z,12.47
2018-05-14T02:06:43.765Z,9.30
2018-05-14T02:09:11.270Z,14.47
2018-05-14T02:11:38.826Z,13.07
2018-05-14T02:14:06.363Z,11.50
2018-05-14T02:16:34.096Z,12.87
2018-05-14T02:19:01.640Z,11.33
2018-05-14T02:21:29.203Z,12.40
2018-05-14T02:23:56.788Z,13.23
2018-05-14T02:26:24.324Z,15.17
2018-05-14T02:28:51.895Z,12.17
2018-05-14T02:31:19.743Z,13.37
2018-05-14T02:33:47.305Z,23.07
2018-05-14T02:36:14.857Z,11.77
2018-05-14T02:38:42.456Z,14.33
2018-05-14T02:41:10.038Z,14.17
2018-05-14T02:43:37.583Z,16.20
2018-05-14T02:46:05.175Z,16.00
2018-05-14T02:48:32.720Z,19.90
2018-05-14T02:51:00.282Z,14.73
2018-05-14T02:53:28.004Z,17.73
2018-05-14T02:55:55.560Z,16.87
2018-05-14T02:58:23.148Z,19.33
2018-05-14T03:00:50.840Z,14.90
2018-05-14T03:03:18.404Z,16.20
2018-05-14T03:05:45.953Z,22.73
2018-05-14T03:08:13.697Z,19.83
2018-05-14T03:10:41.244Z,16.07
2018-05-14T03:13:08.791Z,17.53
2018-05-14T03:15:36.377Z,14.80
2018-05-14T03:18:03.979Z,16.53
2018-05-14T03:20:31.526Z,16.23
2018-05-14T03:22:59.242Z,16.27
2018-05-14T03:25:26.793Z,17.27
2018-05-14T03:27:54.355Z,19.77
2018-05-14T03:30:21.980Z,20.70
2018-05-14T03:32:49.550Z,18.70
2018-05-14T03:35:17.092Z,17.10
2018-05-14T03:37:44.667Z,20.47
2018-05-14T03:40:12.243Z,20.47
2018-05-14T03:42:39.834Z,21.30
2018-05-14T03:45:07.486Z,19.93
2018-05-14T03:47:35.003Z,24.93
2018-05-14T03:50:02.572Z,20.30
2018-05-14T03:52:30.188Z,20.90
2018-05-14T03:54:57.728Z,20.33
2018-05-14T03:57:25.284Z,18.90
2018-05-14T04:00:04.659Z,17.57
2018-05-14T04:02:43.869Z,17.13
2018-05-14T04:05:20.145Z,22.23
2018-05-14T04:07:47.696Z,20.13
2018-05-14T04:10:15.253Z,20.03
2018-05-14T04:12:43.005Z,17.33
2018-05-14T04:15:10.584Z,19.70
2018-05-14T04:17:38.115Z,19.43
2018-05-14T04:20:05.853Z,16.43
2018-05-14T04:22:33.399Z,20.50
2018-05-14T04:25:00.957Z,16.03
2018-05-14T04:27:28.694Z,20.87
2018-05-14T04:29:56.257Z,19.10
2018-05-14T04:32:23.809Z,18.23
2018-05-14T04:34:51.429Z,21.13
2018-05-14T04:37:19.004Z,21.23
2018-05-14T04:39:46.567Z,17.23
2018-05-14T04:42:14.295Z,16.20
2018-05-14T04:44:41.881Z,14.87
2018-05-14T04:47:09.430Z,17.17
2018-05-14T04:49:37.171Z,21.83
2018-05-14T04:52:04.709Z,16.47
2018-05-14T04:54:32.269Z,16.03
2018-05-14T04:56:59.994Z,20.57
2018-05-14T04:59:27.535Z,16.13
2018-05-14T05:01:55.088Z,22.87
2018-05-14T05:04:22.674Z,21.93
2018-05-14T05:06:50.222Z,25.00
2018-05-14T05:09:17.775Z,19.57
2018-05-14T05:11:45.461Z,20.47
2018-05-14T05:14:13.007Z,20.37
2018-05-14T05:16:40.564Z,21.17
2018-05-14T05:19:08.146Z,21.83
2018-05-14T05:21:35.712Z,20.90
2018-05-14T05:24:03.268Z,19.77
2018-05-14T05:26:30.845Z,19.00
2018-05-14T05:28:58.393Z,25.57
2018-05-14T05:31:25.998Z,21.27
2018-05-14T05:33:53.726Z,24.23
2018-05-14T05:36:21.282Z,21.67
2018-05-14T05:38:48.832Z,23.83
2018-05-14T05:41:16.739Z,30.07
2018-05-14T05:43:44.294Z,24.67
2018-05-14T05:46:11.849Z,20.90
2018-05-14T05:48:39.439Z,13.70
2018-05-14T05:51:06.980Z,18.07
2018-05-14T05:53:34.532Z,14.00
2018-05-14T05:56:02.113Z,14.87
2018-05-14T05:58:29.649Z,12.23
2018-05-14T06:00:57.184Z,17.53
2018-05-14T06:03:25.101Z,18.03
2018-05-14T06:05:52.651Z,19.30
2018-05-14T06:08:20.204Z,27.13
2018-05-14T06:10:47.937Z,27.70
2018-05-14T06:13:15.495Z,18.50
2018-05-14T06:15:43.058Z,24.37
2018-05-14T06:18:10.640Z,15.60
2018-05-14T06:20:38.179Z,20.13
2018-05-14T06:23:05.732Z,16.50
2018-05-14T06:25:33.407Z,19.63
2018-05-14T06:28:00.961Z,17.60
2018-05-14T06:30:28.521Z,17.83
2018-05-14T06:32:56.262Z,21.73
2018-05-14T06:35:23.815Z,21.23
2018-05-14T06:37:51.371Z,17.77
2018-05-14T06:40:18.936Z,18.30
2018-05-14T06:42:46.590Z,18.03
2018-05-14T06:45:14.060Z,17.30
2018-05-14T06:47:41.643Z,15.97
2018-05-14T06:50:09.362Z,15.80
2018-05-14T06:52:36.909Z,12.27
2018-05-14T06:55:04.500Z,11.80
2018-05-14T06:57:32.053Z,18.53
2018-05-14T06:59:59.592Z,16.53
2018-05-14T07:02:27.178Z,18.97
2018-05-14T07:04:54.731Z,13.70
2018-05-14T07:07:22.283Z,13.27
2018-05-14T07:09:49.966Z,14.30
2018-05-14T07:12:17.509Z,15.60
2018-05-14T07:14:45.052Z,15.73
2018-05-14T07:17:12.772Z,19.83
2018-05-14T07:19:40.316Z,24.23
2018-05-14T07:22:07.876Z,16.17
2018-05-14T07:24:35.563Z,15.70
2018-05-14T07:27:03.109Z,18.30
2018-05-14T07:29:30.655Z,20.37
2018-05-14T07:31:58.255Z,18.10
2018-05-14T07:34:25.819Z,23.23
2018-05-14T07:36:53.392Z,17.47
2018-05-14T07:39:20.979Z,20.40
2018-05-14T07:41:48.519Z,22.40
2018-05-14T07:44:16.064Z,14.63
2018-05-14T07:46:43.775Z,18.03
2018-05-14T07:49:11.357Z,18.57
2018-05-14T07:51:38.920Z,20.23
2018-05-14T07:54:06.636Z,20.27
2018-05-14T07:56:34.198Z,20.20
2018-05-14T07:59:01.772Z,23.63
2018-05-14T08:01:30.125Z,23.90
2018-05-14T08:03:57.688Z,23.53
2018-05-14T08:06:25.247Z,30.13
2018-05-14T08:08:52.815Z,34.47
2018-05-14T08:11:20.370Z,26.60
2018-05-14T08:13:47.919Z,32.53
2018-05-14T08:16:15.509Z,19.83
2018-05-14T08:18:43.063Z,23.70
2018-05-14T08:21:10.614Z,24.60
2018-05-14T08:23:38.346Z,20.50
2018-05-14T08:26:05.940Z,20.70
2018-05-14T08:28:33.497Z,25.77
2018-05-14T08:31:01.094Z,21.67
2018-05-14T08:33:28.648Z,18.67
2018-05-14T08:35:56.214Z,25.77
2018-05-14T08:38:23.787Z,25.90
2018-05-14T08:40:51.341Z,26.13
2018-05-14T08:43:18.896Z,22.87
2018-05-14T08:45:46.470Z,20.60
2018-05-14T08:48:14.021Z,21.17
2018-05-14T08:50:41.572Z,26.57
2018-05-14T08:53:09.153Z,23.83
2018-05-14T08:55:36.752Z,25.90
2018-05-14T08:58:04.347Z,17.63
2018-05-14T09:00:31.919Z,17.03
2018-05-14T09:02:59.470Z,17.63
2018-05-14T09:05:27.022Z,19.70
2018-05-14T09:07:54.607Z,16.77
2018-05-14T09:10:22.153Z,21.53
2018-05-14T09:12:49.706Z,18.43
2018-05-14T09:15:17.605Z,13.13
2018-05-14T09:17:45.146Z,16.50
2018-05-14T09:20:12.702Z,15.10
2018-05-14T09:22:40.595Z,18.73
2018-05-14T09:25:08.137Z,11.97
2018-05-14T09:27:35.678Z,12.83
2018-05-14T09:30:03.269Z,17.20
2018-05-14T09:32:30.813Z,12.20
2018-05-14T09:34:58.366Z,16.70
2018-05-14T09:37:25.913Z,12.13
2018-05-14T09:39:53.455Z,16.17
2018-05-14T09:42:21.034Z,14.93
2018-05-14T09:44:48.575Z,14.90
2018-05-14T09:47:16.117Z,17.90
2018-05-14T09:49:43.681Z,13.60
2018-05-14T09:52:11.231Z,14.27
2018-05-14T09:54:38.767Z,13.07
2018-05-14T09:57:06.327Z,13.00
2018-05-14T09:59:33.875Z,14.03
2018-05-14T10:02:01.417Z,11.07
2018-05-14T10:04:28.984Z,11.37
2018-05-14T10:06:56.523Z,13.87
2018-05-14T10:09:24.080Z,15.80
2018-05-14T10:11:51.988Z,8.93
2018-05-14T10:14:19.528Z,11.30
2018-05-14T10:16:47.083Z,8.37
2018-05-14T10:19:14.665Z,9.20
2018-05-14T10:21:42.218Z,5.47
2018-05-14T10:24:09.771Z,7.37
2018-05-14T10:26:37.356Z,4.97
2018-05-14T10:29:04.903Z,4.53
2018-05-14T10:31:32.450Z,6.13
2018-05-14T10:34:00.168Z,4.67
2018-05-14T10:36:27.710Z,7.27
2018-05-14T10:38:55.256Z,11.93
2018-05-14T10:41:22.975Z,15.97
2018-05-14T10:43:50.513Z,9.67
2018-05-14T10:46:18.068Z,9.83
2018-05-14T10:48:45.796Z,13.30
2018-05-14T10:51:13.344Z,13.33
2018-05-14T10:53:40.880Z,18.60
2018-05-14T10:56:08.476Z,14.73
2018-05-14T10:58:36.047Z,12.53
2018-05-14T11:01:03.584Z,13.07
2018-05-14T11:03:31.155Z,27.77
2018-05-14T11:05:58.697Z,11.40
2018-05-14T11:08:26.237Z,10.57
2018-05-14T11:10:54.160Z,11.53
2018-05-14T11:13:21.714Z,15.63
2018-05-14T11:15:49.276Z,13.27
2018-05-14T11:18:16.865Z,13.87
2018-05-14T11:20:44.409Z,8.67
2018-05-14T11:23:12.356Z,8.83
2018-05-14T11:25:39.942Z,13.43
2018-05-14T11:28:08.025Z,10.93
2018-05-14T11:30:35.572Z,11.43
2018-05-14T11:33:03.471Z,11.17
2018-05-14T11:35:31.029Z,13.63
2018-05-14T11:37:58.583Z,9.20
2018-05-14T11:40:26.492Z,11.80
2018-05-14T11:42:54.036Z,15.00
2018-05-14T11:45:21.588Z,14.47
2018-05-14T11:47:49.185Z,15.13
2018-05-14T11:50:16.716Z,15.80
2018-05-14T11:52:44.260Z,11.30
2018-05-14T11:55:12.114Z,11.87
2018-05-14T11:57:39.669Z,13.27
2018-05-14T12:00:07.257Z,14.50
2018-05-14T12:02:35.173Z,11.97
2018-05-14T12:05:02.717Z,16.87
2018-05-14T12:07:30.272Z,12.07
2018-05-14T12:09:57.956Z,13.77
2018-05-14T12:12:25.450Z,13.57
2018-05-14T12:14:53.007Z,13.60
2018-05-14T12:17:20.889Z,15.90
2018-05-14T12:19:48.462Z,14.43
2018-05-14T12:22:16.018Z,15.77
2018-05-14T12:24:43.751Z,12.70
2018-05-14T12:27:11.291Z,15.43
2018-05-14T12:29:38.831Z,18.60
2018-05-14T12:32:06.509Z,17.60
2018-05-14T12:34:34.014Z,17.33
2018-05-14T12:37:01.593Z,16.43
2018-05-14T12:39:29.188Z,13.70
2018-05-14T12:41:56.748Z,11.93
2018-05-14T12:44:24.299Z,16.57
2018-05-14T12:46:51.872Z,16.10
2018-05-14T12:49:19.428Z,11.00
2018-05-14T12:51:46.975Z,13.40
2018-05-14T12:54:14.711Z,13.67
2018-05-14T12:56:42.248Z,11.03
2018-05-14T12:59:09.793Z,16.93
2018-05-14T13:01:37.519Z,10.03
2018-05-14T13:04:06.964Z,11.83
2018-05-14T13:06:34.820Z,13.10
2018-05-14T13:09:02.559Z,11.07
2018-05-14T13:11:30.099Z,13.70
2018-05-14T13:13:57.645Z,11.30
2018-05-14T13:16:25.364Z,9.50
2018-05-14T13:18:53.042Z,13.03
2018-05-14T13:21:20.529Z,9.57
2018-05-14T13:23:48.271Z,11.17
2018-05-14T13:26:15.886Z,9.80
2018-05-14T13:28:43.392Z,9.30
2018-05-14T13:31:11.074Z,9.57
2018-05-14T13:33:38.659Z,10.93
2018-05-14T13:36:06.206Z,8.73
2018-05-14T13:38:33.787Z,10.30
2018-05-14T13:41:01.334Z,10.50
2018-05-14T13:43:28.909Z,8.47
2018-05-14T13:45:57.642Z,8.07
2018-05-14T13:48:25.186Z,12.20
2018-05-14T13:50:52.759Z,11.97
2018-05-14T13:53:20.336Z,11.67
2018-05-14T13:55:47.883Z,9.30
2018-05-14T13:58:15.431Z,7.40
2018-05-14T14:00:43.005Z,16.03
2018-05-14T14:03:10.571Z,8.10
2018-05-14T14:05:38.110Z,7.00
2018-05-14T14:08:05.889Z,11.20
2018-05-14T14:10:33.445Z,7.53
2018-05-14T14:13:00.996Z,11.47
2018-05-14T14:15:28.583Z,6.83
2018-05-14T14:17:56.144Z,13.37
2018-05-14T14:20:23.713Z,8.10
2018-05-14T14:22:51.522Z,11.60
2018-05-14T14:25:19.077Z,8.77
2018-05-14T14:27:46.643Z,8.03
2018-05-14T14:30:14.376Z,7.70
2018-05-14T14:32:41.915Z,9.27
2018-05-14T14:35:09.460Z,7.93
2018-05-14T14:37:37.017Z,7.47
2018-05-14T14:40:04.608Z,7.50
2018-05-14T14:42:32.176Z,8.17
2018-05-14T14:44:59.712Z,7.80
2018-05-14T14:47:27.264Z,6.93
2018-05-14T14:49:54.972Z,7.80
2018-05-14T14:52:22.520Z,7.77
2018-05-14T14:54:50.102Z,9.77
2018-05-14T14:57:17.821Z,7.60
2018-05-14T14:59:45.381Z,8.13
2018-05-14T15:02:12.940Z,6.63
2018-05-14T15:04:40.672Z,7.53
2018-05-14T15:07:08.210Z,11.40
2018-05-14T15:09:35.774Z,8.00
2018-05-14T15:12:03.690Z,10.10
2018-05-14T15:14:31.241Z,8.27
2018-05-14T15:16:58.825Z,8.10
2018-05-14T15:19:26.612Z,7.30
2018-05-14T15:21:54.154Z,8.47
2018-05-14T15:24:21.700Z,13.80
2018-05-14T15:26:49.436Z,8.73
2018-05-14T15:29:16.973Z,15.60
2018-05-14T15:31:44.515Z,10.93
2018-05-14T15:34:12.229Z,7.80
2018-05-14T15:36:39.761Z,8.63
2018-05-14T15:39:07.308Z,11.00
2018-05-14T15:41:34.890Z,13.03
2018-05-14T15:44:02.433Z,11.17
2018-05-14T15:46:29.974Z,8.10
2018-05-14T15:48:57.547Z,7.63
2018-05-14T15:51:25.095Z,10.77
2018-05-14T15:53:52.650Z,14.73
2018-05-14T15:56:20.236Z,11.50
2018-05-14T15:58:47.793Z,10.50
2018-05-14T16:01:15.356Z,16.33
2018-05-14T16:03:42.933Z,9.77
2018-05-14T16:06:10.487Z,17.17
2018-05-14T16:08:38.038Z,14.23
2018-05-14T16:11:05.777Z,10.17
2018-05-14T16:13:33.332Z,15.47
2018-05-14T16:16:00.879Z,12.53
2018-05-14T16:18:28.462Z,10.57
2018-05-14T16:20:56.029Z,9.60
2018-05-14T16:23:23.589Z,9.60
2018-05-14T16:25:51.177Z,14.37
2018-05-14T16:28:18.740Z,7.70
2018-05-14T16:30:46.284Z,9.87
2018-05-14T16:33:13.902Z,11.37
2018-05-14T16:35:41.484Z,7.83
2018-05-14T16:38:09.054Z,27.10
2018-05-14T16:40:36.735Z,9.80
2018-05-14T16:43:04.333Z,11.53
2018-05-14T16:45:31.881Z,13.00
2018-05-14T16:47:59.795Z,10.80
2018-05-14T16:50:27.500Z,11.07
2018-05-14T16:52:54.980Z,9.60
2018-05-14T16:55:22.584Z,9.53
2018-05-14T16:57:50.186Z,13.17
2018-05-14T17:00:17.741Z,15.50
2018-05-14T17:02:45.303Z,9.43
2018-05-14T17:05:12.856Z,10.67
2018-05-14T17:07:40.396Z,16.77
2018-05-14T17:10:08.125Z,11.67
2018-05-14T17:12:35.693Z,13.03
2018-05-14T17:15:03.334Z,11.83
2018-05-14T17:17:30.933Z,11.60
2018-05-14T17:19:58.538Z,7.87
2018-05-14T17:22:26.081Z,9.20
2018-05-14T17:24:53.656Z,7.13
2018-05-14T17:27:21.204Z,10.80
2018-05-14T17:29:48.746Z,13.13
2018-05-14T17:32:16.731Z,8.40
2018-05-14T17:34:44.309Z,10.40
2018-05-14T17:37:11.858Z,12.00
2018-05-14T17:39:39.437Z,8.93
2018-05-14T17:42:07.040Z,12.80
2018-05-14T17:44:34.602Z,19.90
2018-05-14T17:47:02.986Z,14.60
2018-05-14T17:49:30.518Z,16.33
2018-05-14T17:51:58.123Z,17.57
2018-05-14T17:54:25.714Z,17.60
2018-05-14T17:56:53.263Z,15.43
2018-05-14T17:59:20.851Z,13.80
2018-05-14T18:01:48.454Z,14.73
2018-05-14T18:04:16.056Z,14.80
2018-05-14T18:06:43.648Z,13.03
2018-05-14T18:09:11.252Z,14.70
2018-05-14T18:11:38.835Z,19.57
2018-05-14T18:14:06.428Z,16.93
2018-05-14T18:16:34.252Z,13.27
2018-05-14T18:19:01.807Z,14.87
2018-05-14T18:21:34.960Z,15.90
2018-05-14T18:24:02.693Z,18.30
2018-05-14T18:26:35.827Z,16.90
2018-05-14T18:29:06.254Z,15.53
2018-05-14T18:31:33.890Z,13.67
2018-05-14T18:34:08.819Z,15.87
2018-05-14T18:36:36.410Z,15.83
2018-05-14T18:39:04.070Z,19.30
2018-05-14T18:41:31.625Z,11.50
2018-05-14T18:43:59.219Z,18.70
2018-05-14T18:46:26.820Z,13.03
2018-05-14T18:48:54.757Z,12.73
2018-05-14T18:51:22.319Z,11.63
2018-05-14T18:53:49.878Z,13.67
2018-05-14T18:56:17.564Z,14.70
2018-05-14T18:58:45.161Z,18.17
2018-05-14T19:01:12.732Z,14.87
2018-05-14T19:03:40.354Z,12.27
2018-05-14T19:06:07.969Z,11.67
2018-05-14T19:08:35.533Z,18.17
2018-05-14T19:11:09.065Z,11.13
2018-05-14T19:13:36.668Z,16.00
2018-05-14T19:16:09.762Z,13.70
2018-05-14T19:18:38.957Z,13.30
2018-05-14T19:21:06.530Z,12.63
2018-05-14T19:23:39.756Z,18.80
2018-05-14T19:26:07.399Z,16.17
2018-05-14T19:28:40.676Z,15.37
2018-05-14T19:31:08.240Z,14.43
2018-05-14T19:33:41.544Z,13.43
2018-05-14T19:36:09.196Z,15.50
2018-05-14T19:38:36.679Z,14.50
2018-05-14T19:41:04.304Z,16.80
2018-05-14T19:43:31.889Z,14.53
2018-05-14T19:46:00.370Z,13.57
2018-05-14T19:48:27.982Z,19.17
2018-05-14T19:50:55.580Z,16.23
2018-05-14T19:53:23.195Z,14.20
2018-05-14T19:55:50.793Z,17.63
2018-05-14T19:58:18.364Z,19.33
2018-05-14T20:00:45.947Z,19.97
2018-05-14T20:03:13.635Z,26.30
2018-05-14T20:05:41.188Z,15.13
2018-05-14T20:08:08.790Z,14.50
2018-05-14T20:10:36.552Z,12.43
2018-05-14T20:13:04.141Z,18.63
2018-05-14T20:15:31.728Z,17.57
2018-05-14T20:17:59.355Z,15.27
2018-05-14T20:20:26.917Z,15.63
2018-05-14T20:22:54.495Z,20.07
2018-05-14T20:25:22.237Z,20.83
2018-05-14T20:27:49.824Z,20.23
2018-05-14T20:30:17.385Z,21.70
2018-05-14T20:32:45.318Z,22.37
2018-05-14T20:35:12.892Z,24.33
2018-05-14T20:37:40.490Z,24.03
2018-05-14T20:40:08.239Z,21.20
2018-05-14T20:42:35.798Z,22.90
2018-05-14T20:45:03.392Z,23.10
2018-05-14T20:47:31.154Z,23.60
2018-05-14T20:49:58.735Z,29.57
2018-05-14T20:52:26.292Z,26.47
2018-05-14T20:54:54.057Z,24.73
2018-05-14T20:57:21.609Z,31.70
2018-05-14T20:59:49.165Z,26.80
2018-05-14T21:02:16.802Z,22.50
2018-05-14T21:04:44.352Z,24.10
2018-05-14T21:07:11.923Z,23.10
2018-05-14T21:09:39.507Z,28.87
2018-05-14T21:12:07.081Z,16.80
2018-05-14T21:14:34.638Z,20.47
2018-05-14T21:17:02.364Z,18.37
2018-05-14T21:19:29.915Z,16.27
2018-05-14T21:21:57.482Z,19.03
2018-05-14T21:24:25.059Z,20.37
2018-05-14T21:26:52.632Z,19.13
2018-05-14T21:29:20.182Z,14.90
2018-05-14T21:31:47.907Z,14.20
2018-05-14T21:34:15.460Z,20.30
2018-05-14T21:36:43.042Z,15.57
2018-05-14T21:39:10.813Z,17.40
2018-05-14T21:41:38.388Z,15.67
2018-05-14T21:44:05.942Z,18.37
2018-05-14T21:46:33.679Z,16.80
2018-05-14T21:49:01.225Z,17.00
2018-05-14T21:51:28.768Z,16.33
2018-05-14T21:53:56.382Z,22.57
2018-05-14T21:56:23.922Z,19.53
2018-05-14T21:58:51.472Z,19.93
2018-05-14T22:01:19.217Z,16.80
2018-05-14T22:03:46.777Z,16.77
2018-05-14T22:06:14.365Z,15.87
2018-05-14T22:08:42.095Z,20.90
2018-05-14T22:11:10.405Z,15.83
2018-05-14T22:13:37.944Z,15.00
2018-05-14T22:16:05.868Z,21.80
2018-05-14T22:18:33.419Z,16.07
2018-05-14T22:21:00.971Z,12.87
2018-05-14T22:23:28.649Z,16.13
2018-05-14T22:25:56.192Z,16.23
2018-05-14T22:28:23.740Z,15.13
2018-05-14T22:30:51.504Z,15.97
2018-05-14T22:33:18.330Z,18.67
2018-05-14T22:35:45.882Z,20.37
2018-05-14T22:38:13.466Z,16.80
2018-05-14T22:40:41.019Z,18.27
2018-05-14T22:43:08.744Z,16.43
2018-05-14T22:45:36.289Z,19.43
2018-05-14T22:48:03.851Z,23.03
2018-05-14T22:50:31.424Z,18.87
2018-05-14T22:52:58.977Z,17.70
2018-05-14T22:55:26.513Z,17.20
2018-05-14T22:57:54.252Z,23.30
2018-05-14T23:00:31.209Z,18.53
2018-05-14T23:02:58.775Z,19.60
2018-05-14T23:05:26.336Z,17.37
2018-05-14T23:07:53.896Z,16.43
2018-05-14T23:10:21.573Z,20.27
2018-05-14T23:12:49.141Z,17.87
2018-05-14T23:15:16.689Z,19.40
2018-05-14T23:17:44.261Z,14.00
2018-05-14T23:20:11.817Z,15.63
2018-05-14T23:22:43.118Z,20.43
2018-05-14T23:25:10.862Z,18.73
2018-05-14T23:27:38.434Z,19.53
2018-05-14T23:30:05.997Z,16.30
2018-05-14T23:32:33.582Z,14.63
2018-05-14T23:35:01.136Z,16.83
2018-05-14T23:37:28.689Z,20.30
2018-05-14T23:39:56.377Z,21.10
2018-05-14T23:42:23.947Z,28.13
2018-05-14T23:44:51.540Z,29.00
2018-05-14T23:47:19.269Z,22.27
2018-05-14T23:49:46.827Z,22.00
2018-05-14T23:52:14.389Z,22.90
2018-05-14T23:54:42.293Z,30.00
2018-05-14T23:57:09.845Z,20.23
2018-05-14T23:59:37.397Z,24.93
